createdAt,value
2019-02-20T00:00:11.850Z,19.57
2019-02-20T00:02:40.727Z,12.17
2019-02-20T00:05:09.649Z,13.17
2019-02-20T00:07:38.489Z,18.07
2019-02-20T00:10:07.637Z,16.57
2019-02-20T00:12:36.692Z,19.30
2019-02-20T00:15:06.904Z,14.10
2019-02-20T00:17:35.773Z,18.17
2019-02-20T00:20:06.111Z,17.57
2019-02-20T00:22:40.210Z,16.47
2019-02-20T00:25:07.313Z,19.00
2019-02-20T00:27:36.489Z,23.37
2019-02-20T00:30:07.961Z,19.97
2019-02-20T00:32:36.806Z,17.47
2019-02-20T00:35:06.821Z,18.17
2019-02-20T00:37:35.676Z,16.07
2019-02-20T00:40:06.536Z,15.87
2019-02-20T00:42:35.450Z,14.53
2019-02-20T00:45:06.673Z,21.40
2019-02-20T00:47:37.098Z,14.90
2019-02-20T00:50:07.013Z,19.60
2019-02-20T00:52:49.420Z,20.60
2019-02-20T00:55:11.206Z,18.10
2019-02-20T00:57:40.052Z,14.27
2019-02-20T01:00:12.019Z,18.10
2019-02-20T01:02:40.926Z,15.60
2019-02-20T01:05:09.908Z,14.73
2019-02-20T01:07:38.851Z,17.03
2019-02-20T01:10:08.981Z,17.00
2019-02-20T01:12:37.930Z,16.50
2019-02-20T01:15:09.780Z,19.13
2019-02-20T01:17:38.692Z,15.40
2019-02-20T01:20:09.951Z,29.50
2019-02-20T01:22:38.788Z,17.57
2019-02-20T01:25:07.656Z,17.13
2019-02-20T01:27:36.285Z,17.67
2019-02-20T01:30:07.601Z,15.43
2019-02-20T01:32:36.262Z,18.27
2019-02-20T01:35:05.097Z,19.70
2019-02-20T01:37:33.796Z,19.10
2019-02-20T01:40:02.482Z,21.37
2019-02-20T01:42:31.118Z,19.10
2019-02-20T01:44:59.732Z,15.67
2019-02-20T01:47:28.385Z,21.07
2019-02-20T01:49:57.006Z,20.87
2019-02-20T01:52:25.631Z,21.63
2019-02-20T01:54:54.286Z,22.53
2019-02-20T01:57:22.916Z,15.83
2019-02-20T01:59:51.543Z,16.40
2019-02-20T02:02:20.203Z,15.03
2019-02-20T02:04:48.818Z,13.03
2019-02-20T02:07:17.445Z,19.67
2019-02-20T02:09:46.104Z,23.37
2019-02-20T02:12:14.724Z,14.50
2019-02-20T02:14:43.360Z,15.97
2019-02-20T02:17:12.017Z,20.50
2019-02-20T02:19:40.636Z,18.73
2019-02-20T02:22:09.265Z,16.10
2019-02-20T02:24:37.946Z,21.73
2019-02-20T02:27:06.570Z,22.33
2019-02-20T02:29:35.202Z,17.07
2019-02-20T02:32:03.847Z,18.70
2019-02-20T02:34:32.469Z,26.17
2019-02-20T02:37:01.114Z,23.27
2019-02-20T02:39:29.768Z,16.53
2019-02-20T02:41:58.394Z,18.20
2019-02-20T02:44:27.009Z,22.13
2019-02-20T02:46:55.690Z,22.70
2019-02-20T02:49:24.314Z,16.07
2019-02-20T02:51:52.920Z,22.83
2019-02-20T02:54:21.582Z,18.80
2019-02-20T02:56:50.214Z,18.30
2019-02-20T02:59:18.852Z,23.10
2019-02-20T03:01:47.496Z,12.50
2019-02-20T03:04:16.134Z,17.93
2019-02-20T03:06:44.752Z,19.27
2019-02-20T03:09:13.401Z,14.47
2019-02-20T03:11:42.020Z,13.90
2019-02-20T03:14:10.647Z,16.53
2019-02-20T03:16:39.317Z,20.90
2019-02-20T03:19:07.944Z,18.20
2019-02-20T03:21:36.553Z,15.43
2019-02-20T03:24:05.200Z,18.10
2019-02-20T03:26:33.821Z,14.97
2019-02-20T03:29:02.449Z,20.93
2019-02-20T03:31:31.111Z,16.83
2019-02-20T03:33:59.781Z,17.73
2019-02-20T03:36:28.441Z,21.13
2019-02-20T03:38:57.110Z,20.40
2019-02-20T03:41:25.957Z,18.87
2019-02-20T03:43:54.562Z,16.43
2019-02-20T03:46:23.221Z,21.70
2019-02-20T03:48:51.852Z,26.20
2019-02-20T03:51:20.469Z,18.73
2019-02-20T03:53:51.953Z,18.50
2019-02-20T03:56:19.472Z,13.77
2019-02-20T03:58:48.096Z,23.10
2019-02-20T04:01:16.739Z,18.80
2019-02-20T04:03:45.364Z,16.70
2019-02-20T04:06:13.991Z,19.33
2019-02-20T04:08:42.651Z,19.17
2019-02-20T04:11:11.270Z,17.30
2019-02-20T04:13:39.904Z,19.57
2019-02-20T04:16:08.570Z,16.33
2019-02-20T04:18:37.199Z,15.07
2019-02-20T04:21:05.849Z,18.33
2019-02-20T04:23:34.479Z,17.03
2019-02-20T04:26:03.139Z,13.40
2019-02-20T04:28:31.736Z,22.33
2019-02-20T04:31:00.389Z,18.50
2019-02-20T04:33:29.009Z,14.13
2019-02-20T04:35:57.630Z,15.47
2019-02-20T04:38:26.289Z,12.40
2019-02-20T04:40:54.925Z,15.83
2019-02-20T04:43:23.619Z,16.67
2019-02-20T04:45:52.283Z,18.20
2019-02-20T04:48:20.912Z,15.73
2019-02-20T04:50:49.526Z,22.43
2019-02-20T04:53:18.190Z,22.20
2019-02-20T04:55:46.805Z,15.17
2019-02-20T04:58:20.641Z,15.50
2019-02-20T05:00:49.292Z,19.67
2019-02-20T05:03:17.916Z,20.43
2019-02-20T05:05:46.547Z,21.40
2019-02-20T05:08:15.200Z,16.80
2019-02-20T05:10:43.829Z,15.37
2019-02-20T05:13:12.455Z,20.57
2019-02-20T05:15:41.204Z,17.43
2019-02-20T05:18:09.837Z,21.77
2019-02-20T05:20:38.620Z,20.63
2019-02-20T05:23:07.282Z,16.70
2019-02-20T05:25:35.985Z,17.70
2019-02-20T05:28:04.611Z,18.90
2019-02-20T05:30:33.263Z,19.67
2019-02-20T05:33:01.910Z,30.13
2019-02-20T05:35:30.533Z,21.20
2019-02-20T05:37:59.267Z,21.00
2019-02-20T05:40:27.942Z,21.77
2019-02-20T05:42:56.541Z,19.57
2019-02-20T05:45:25.204Z,19.30
2019-02-20T05:47:53.832Z,18.40
2019-02-20T05:50:22.462Z,15.27
2019-02-20T05:52:51.198Z,19.97
2019-02-20T05:55:19.838Z,21.33
2019-02-20T05:57:48.467Z,24.57
2019-02-20T06:03:47.109Z,31.03
2019-02-20T06:06:15.738Z,27.57
2019-02-20T06:08:44.372Z,16.77
2019-02-20T06:11:15.212Z,24.60
2019-02-20T06:13:43.424Z,19.43
2019-02-20T06:16:12.069Z,68.30
2019-02-20T06:18:40.777Z,37.43
2019-02-20T06:21:09.362Z,37.00
2019-02-20T06:23:37.998Z,35.77
2019-02-20T06:26:06.672Z,120.37
2019-02-20T06:28:35.299Z,40.40
2019-02-20T06:31:03.927Z,35.50
2019-02-20T06:33:33.062Z,29.93
2019-02-20T06:36:01.698Z,32.43
2019-02-20T06:38:30.322Z,34.30
2019-02-20T06:40:59.000Z,35.53
2019-02-20T06:43:27.610Z,36.33
2019-02-20T06:45:56.241Z,43.20
2019-02-20T06:48:24.911Z,32.50
2019-02-20T06:50:53.534Z,37.10
2019-02-20T06:53:22.188Z,45.83
2019-02-20T06:55:50.864Z,40.13
2019-02-20T06:58:19.567Z,35.50
2019-02-20T07:00:48.204Z,31.07
2019-02-20T07:03:16.873Z,37.30
2019-02-20T07:05:45.494Z,37.57
2019-02-20T07:08:35.561Z,32.00
2019-02-20T07:11:09.785Z,41.03
2019-02-20T07:14:02.170Z,35.90
2019-02-20T07:16:49.978Z,33.53
2019-02-20T07:19:21.560Z,30.23
2019-02-20T07:21:58.870Z,27.73
2019-02-20T07:24:33.164Z,32.87
2019-02-20T07:27:07.283Z,34.50
2019-02-20T07:30:00.576Z,28.53
2019-02-20T07:32:29.179Z,38.87
2019-02-20T07:34:57.804Z,34.37
2019-02-20T07:37:26.471Z,52.37
2019-02-20T07:39:55.095Z,35.80
2019-02-20T07:42:23.819Z,29.90
2019-02-20T07:44:52.479Z,33.30
2019-02-20T07:47:21.115Z,34.50
2019-02-20T07:49:49.749Z,41.87
2019-02-20T07:52:18.410Z,35.47
2019-02-20T07:54:47.030Z,42.10
2019-02-20T07:57:15.659Z,42.93
2019-02-20T07:59:44.338Z,43.70
2019-02-20T08:02:12.970Z,58.13
2019-02-20T08:04:41.613Z,45.50
2019-02-20T08:07:10.269Z,57.73
2019-02-20T08:09:38.895Z,44.70
2019-02-20T08:12:07.523Z,48.43
2019-02-20T08:14:36.190Z,45.60
2019-02-20T08:17:04.825Z,38.40
2019-02-20T08:19:33.450Z,36.53
2019-02-20T08:22:02.117Z,39.37
2019-02-20T08:24:30.736Z,41.13
2019-02-20T08:26:59.355Z,40.23
2019-02-20T08:29:28.046Z,38.33
2019-02-20T08:31:56.642Z,38.33
2019-02-20T08:34:25.280Z,40.90
2019-02-20T08:36:53.934Z,43.70
2019-02-20T08:39:22.565Z,46.77
2019-02-20T08:41:51.195Z,46.50
2019-02-20T08:44:19.855Z,46.97
2019-02-20T08:46:48.484Z,48.03
2019-02-20T08:49:17.120Z,56.80
2019-02-20T08:51:45.790Z,60.00
2019-02-20T08:54:14.424Z,51.93
2019-02-20T08:56:43.049Z,56.67
2019-02-20T08:59:11.717Z,45.57
2019-02-20T09:01:40.336Z,52.13
2019-02-20T09:04:08.968Z,40.87
2019-02-20T09:06:37.637Z,41.33
2019-02-20T09:09:06.272Z,52.30
2019-02-20T09:11:34.898Z,53.43
2019-02-20T09:14:03.573Z,37.10
2019-02-20T09:16:32.202Z,43.10
2019-02-20T09:19:00.835Z,27.73
2019-02-20T09:21:29.626Z,32.53
2019-02-20T09:23:58.192Z,17.70
2019-02-20T09:26:26.819Z,20.83
2019-02-20T09:28:56.735Z,31.40
2019-02-20T09:31:25.555Z,16.07
2019-02-20T09:33:54.175Z,19.50
2019-02-20T09:36:22.850Z,15.60
2019-02-20T09:38:51.481Z,15.23
2019-02-20T09:41:20.105Z,10.30
2019-02-20T09:43:48.839Z,17.40
2019-02-20T09:46:17.463Z,25.67
2019-02-20T09:48:46.087Z,21.53
2019-02-20T09:51:14.753Z,35.23
2019-02-20T09:53:43.387Z,10.00
2019-02-20T09:56:12.012Z,15.77
2019-02-20T09:58:40.675Z,14.07
2019-02-20T10:01:09.300Z,8.90
2019-02-20T10:03:37.930Z,16.87
2019-02-20T10:06:06.594Z,17.20
2019-02-20T10:08:35.215Z,16.23
2019-02-20T10:11:03.846Z,15.97
2019-02-20T10:13:32.514Z,8.03
2019-02-20T10:16:01.130Z,11.20
2019-02-20T10:18:29.769Z,11.17
2019-02-20T10:20:58.441Z,14.43
2019-02-20T10:23:27.060Z,9.80
2019-02-20T10:26:00.975Z,15.47
2019-02-20T10:28:26.080Z,17.17
2019-02-20T10:30:54.704Z,13.83
2019-02-20T10:33:23.327Z,14.27
2019-02-20T10:35:51.997Z,12.27
2019-02-20T10:38:20.616Z,15.50
2019-02-20T10:40:49.243Z,16.50
2019-02-20T10:43:17.906Z,13.80
2019-02-20T10:45:46.536Z,18.57
2019-02-20T10:48:15.154Z,8.90
2019-02-20T10:50:43.821Z,11.80
2019-02-20T10:53:12.446Z,12.33
2019-02-20T10:55:41.080Z,25.83
2019-02-20T10:58:09.738Z,11.20
2019-02-20T11:00:38.741Z,13.27
2019-02-20T11:03:07.374Z,17.00
2019-02-20T11:05:36.039Z,15.57
2019-02-20T11:08:04.659Z,12.00
2019-02-20T11:10:33.285Z,13.03
2019-02-20T11:13:02.018Z,8.63
2019-02-20T11:15:30.645Z,12.13
2019-02-20T11:17:59.277Z,12.33
2019-02-20T11:20:27.940Z,15.00
2019-02-20T11:22:56.567Z,11.33
2019-02-20T11:25:25.193Z,13.20
2019-02-20T11:27:53.852Z,12.43
2019-02-20T11:30:25.118Z,9.33
2019-02-20T11:32:53.743Z,13.83
2019-02-20T11:35:22.409Z,11.97
2019-02-20T11:37:51.035Z,10.83
2019-02-20T11:40:19.665Z,9.37
2019-02-20T11:42:48.331Z,5.77
2019-02-20T11:45:20.017Z,12.57
2019-02-20T11:47:48.649Z,12.83
2019-02-20T11:50:17.305Z,8.07
2019-02-20T11:52:45.934Z,9.00
2019-02-20T11:55:15.775Z,10.40
2019-02-20T11:57:44.449Z,22.63
2019-02-20T12:00:15.650Z,12.80
2019-02-20T12:02:44.275Z,6.87
2019-02-20T12:05:13.138Z,9.93
2019-02-20T12:07:41.766Z,11.87
2019-02-20T12:10:12.872Z,8.43
2019-02-20T12:12:41.607Z,10.13
2019-02-20T12:15:10.331Z,9.63
2019-02-20T12:17:38.962Z,15.97
2019-02-20T12:20:08.731Z,13.40
2019-02-20T12:22:37.459Z,15.50
2019-02-20T12:25:07.979Z,12.80
2019-02-20T12:27:36.648Z,14.10
2019-02-20T12:30:07.813Z,12.67
2019-02-20T12:32:36.438Z,11.47
2019-02-20T12:35:06.394Z,8.37
2019-02-20T12:37:35.022Z,11.43
2019-02-20T12:40:05.126Z,14.20
2019-02-20T12:42:33.867Z,10.93
2019-02-20T12:45:02.508Z,12.30
2019-02-20T12:47:31.132Z,11.47
2019-02-20T12:49:59.809Z,13.00
2019-02-20T12:52:28.440Z,14.17
2019-02-20T12:54:57.076Z,17.87
2019-02-20T12:57:25.915Z,11.60
2019-02-20T12:59:54.530Z,15.37
2019-02-20T13:02:23.226Z,11.77
2019-02-20T13:04:51.887Z,15.33
2019-02-20T13:07:20.520Z,13.50
2019-02-20T13:09:50.192Z,11.83
2019-02-20T13:12:18.905Z,15.77
2019-02-20T13:14:47.534Z,12.40
2019-02-20T13:17:16.167Z,14.80
2019-02-20T13:19:44.838Z,11.60
2019-02-20T13:22:13.473Z,13.70
2019-02-20T13:24:43.915Z,9.60
2019-02-20T13:27:12.641Z,11.50
2019-02-20T13:29:41.275Z,11.60
2019-02-20T13:32:09.913Z,13.97
2019-02-20T13:34:38.571Z,10.70
2019-02-20T13:37:07.201Z,12.10
2019-02-20T13:39:35.825Z,13.40
2019-02-20T13:42:04.560Z,20.17
2019-02-20T13:44:33.450Z,8.97
2019-02-20T13:47:02.085Z,12.03
2019-02-20T13:49:30.749Z,11.53
2019-02-20T13:51:59.379Z,11.60
2019-02-20T13:54:28.010Z,10.73
2019-02-20T13:57:01.829Z,12.77
2019-02-20T13:59:27.068Z,10.93
2019-02-20T14:01:55.936Z,15.67
2019-02-20T14:04:24.591Z,15.10
2019-02-20T14:06:53.222Z,9.73
2019-02-20T14:09:21.861Z,11.43
2019-02-20T14:11:50.523Z,13.33
2019-02-20T14:14:19.150Z,13.80
2019-02-20T14:16:47.779Z,13.53
2019-02-20T14:19:16.615Z,14.20
2019-02-20T14:21:45.245Z,11.00
2019-02-20T14:24:13.880Z,14.13
2019-02-20T14:26:42.620Z,19.93
2019-02-20T14:29:11.325Z,20.70
2019-02-20T14:31:39.952Z,20.10
2019-02-20T14:34:08.987Z,22.63
2019-02-20T14:36:37.685Z,16.20
2019-02-20T14:39:06.418Z,16.50
2019-02-20T14:41:35.082Z,11.33
2019-02-20T14:44:03.712Z,14.23
2019-02-20T14:46:32.346Z,13.07
2019-02-20T14:49:01.076Z,13.67
2019-02-20T14:51:30.045Z,12.60
2019-02-20T14:53:58.672Z,18.10
2019-02-20T14:56:27.341Z,18.07
2019-02-20T14:58:55.967Z,15.17
2019-02-20T15:01:24.596Z,20.00
2019-02-20T15:03:53.332Z,14.97
2019-02-20T15:06:21.958Z,15.90
2019-02-20T15:08:50.591Z,16.20
2019-02-20T15:11:19.348Z,13.97
2019-02-20T15:13:48.055Z,21.87
2019-02-20T15:16:16.748Z,22.13
2019-02-20T15:18:45.419Z,16.73
2019-02-20T15:21:14.119Z,19.10
2019-02-20T15:23:43.133Z,14.60
2019-02-20T15:26:11.799Z,17.30
2019-02-20T15:28:40.506Z,16.77
2019-02-20T15:31:09.130Z,12.33
2019-02-20T15:33:37.809Z,16.60
2019-02-20T15:36:06.415Z,18.67
2019-02-20T15:38:35.100Z,18.67
2019-02-20T15:41:04.020Z,18.33
2019-02-20T15:43:32.729Z,18.63
2019-02-20T15:46:01.421Z,20.90
2019-02-20T15:48:30.157Z,16.53
2019-02-20T15:50:58.853Z,16.90
2019-02-20T15:53:27.479Z,19.60
2019-02-20T15:55:56.153Z,25.90
2019-02-20T15:58:24.783Z,19.33
2019-02-20T16:00:53.423Z,17.43
2019-02-20T16:03:22.075Z,22.23
2019-02-20T16:05:50.705Z,19.57
2019-02-20T16:08:19.412Z,23.23
2019-02-20T16:10:48.140Z,19.80
2019-02-20T16:13:17.122Z,25.20
2019-02-20T16:15:45.825Z,35.23
2019-02-20T16:18:14.483Z,18.10
2019-02-20T16:20:43.178Z,59.80
2019-02-20T16:23:11.874Z,22.13
2019-02-20T16:25:40.972Z,19.00
2019-02-20T16:28:09.611Z,25.60
2019-02-20T16:30:38.598Z,29.97
2019-02-20T16:33:07.337Z,30.20
2019-02-20T16:35:35.981Z,19.40
2019-02-20T16:38:04.621Z,20.53
2019-02-20T16:40:33.357Z,38.03
2019-02-20T16:43:03.808Z,25.27
2019-02-20T16:45:32.493Z,31.70
2019-02-20T16:48:01.161Z,28.33
2019-02-20T16:50:29.820Z,29.73
2019-02-20T16:52:58.536Z,18.47
2019-02-20T16:55:27.261Z,34.50
2019-02-20T16:57:56.998Z,23.10
2019-02-20T17:00:25.891Z,20.80
2019-02-20T17:02:57.304Z,17.60
2019-02-20T17:05:26.159Z,22.00
2019-02-20T17:07:54.939Z,17.23
2019-02-20T17:10:23.693Z,23.63
2019-02-20T17:12:52.607Z,19.40
2019-02-20T17:15:21.314Z,22.23
2019-02-20T17:17:50.442Z,23.93
2019-02-20T17:20:20.592Z,21.80
2019-02-20T17:22:49.303Z,24.03
2019-02-20T17:25:18.440Z,20.37
2019-02-20T17:27:47.167Z,22.23
2019-02-20T17:30:17.098Z,20.13
2019-02-20T17:32:46.210Z,12.50
2019-02-20T17:35:17.146Z,23.87
2019-02-20T17:37:46.002Z,16.17
2019-02-20T17:40:15.793Z,24.30
2019-02-20T17:42:44.488Z,19.93
2019-02-20T17:45:17.266Z,22.10
2019-02-20T17:47:46.299Z,24.53
2019-02-20T17:50:25.314Z,15.47
2019-02-20T17:52:53.985Z,18.73
2019-02-20T17:55:22.697Z,21.33
2019-02-20T17:57:51.389Z,17.13
2019-02-20T18:00:22.171Z,19.30
2019-02-20T18:02:50.862Z,17.47
2019-02-20T18:05:19.562Z,17.77
2019-02-20T18:07:51.020Z,14.20
2019-02-20T18:10:18.711Z,29.03
2019-02-20T18:12:47.412Z,20.40
2019-02-20T18:15:16.142Z,19.07
2019-02-20T18:17:44.855Z,16.47
2019-02-20T18:20:13.555Z,20.73
2019-02-20T18:22:43.772Z,17.57
2019-02-20T18:25:13.072Z,17.23
2019-02-20T18:27:41.757Z,19.23
2019-02-20T18:30:15.358Z,21.43
2019-02-20T18:32:44.059Z,23.33
2019-02-20T18:35:17.515Z,22.83
2019-02-20T18:37:46.240Z,22.77
2019-02-20T18:40:18.194Z,23.23
2019-02-20T18:42:46.907Z,23.87
2019-02-20T18:45:16.336Z,26.13
2019-02-20T18:47:45.047Z,22.33
2019-02-20T18:50:15.048Z,33.23
2019-02-20T18:52:43.779Z,18.47
2019-02-20T18:55:13.705Z,23.10
2019-02-20T18:57:42.402Z,22.87
2019-02-20T19:00:16.543Z,17.87
2019-02-20T19:02:45.276Z,20.67
2019-02-20T19:05:14.741Z,24.63
2019-02-20T19:07:43.496Z,21.20
2019-02-20T19:10:21.336Z,17.87
2019-02-20T19:13:07.931Z,17.10
2019-02-20T19:15:51.418Z,18.50
2019-02-20T19:18:25.746Z,20.37
2019-02-20T19:21:12.369Z,19.93
2019-02-20T19:24:00.269Z,14.73
2019-02-20T19:26:48.246Z,21.07
2019-02-20T19:29:39.270Z,20.73
2019-02-20T19:32:33.236Z,18.90
2019-02-20T19:35:22.743Z,20.47
2019-02-20T19:38:10.571Z,18.23
2019-02-20T19:41:15.340Z,28.83
2019-02-20T19:43:47.029Z,21.90
2019-02-20T19:46:41.287Z,23.80
2019-02-20T19:49:27.354Z,30.70
2019-02-20T19:52:19.951Z,24.27
2019-02-20T19:55:03.283Z,126.70
2019-02-20T19:57:40.442Z,109.70
2019-02-20T20:00:24.151Z,53.93
2019-02-20T20:02:58.630Z,35.07
2019-02-20T20:05:36.725Z,36.47
2019-02-20T20:08:29.176Z,50.23
2019-02-20T20:11:06.674Z,24.17
2019-02-20T20:14:11.139Z,28.50
2019-02-20T20:16:59.143Z,26.87
2019-02-20T20:19:50.064Z,35.07
2019-02-20T20:22:33.375Z,20.77
2019-02-20T20:25:26.158Z,19.23
2019-02-20T20:28:18.893Z,20.63
2019-02-20T20:31:05.249Z,18.73
2019-02-20T20:33:54.545Z,22.80
2019-02-20T20:36:41.105Z,26.90
2019-02-20T20:39:18.717Z,18.93
2019-02-20T20:42:05.259Z,18.60
2019-02-20T20:44:36.882Z,27.67
2019-02-20T20:47:11.141Z,23.77
2019-02-20T20:49:45.539Z,22.30
2019-02-20T20:52:38.254Z,22.57
2019-02-20T20:55:27.908Z,25.97
2019-02-20T20:58:21.990Z,20.33
2019-02-20T21:00:59.126Z,21.20
2019-02-20T21:03:30.417Z,22.53
2019-02-20T21:06:13.727Z,25.00
2019-02-20T21:08:45.397Z,27.13
2019-02-20T21:11:19.738Z,49.17
2019-02-20T21:14:00.214Z,52.40
2019-02-20T21:16:51.226Z,54.47
2019-02-20T21:19:43.625Z,48.67
2019-02-20T21:22:30.046Z,94.30
2019-02-20T21:25:19.462Z,67.30
2019-02-20T21:28:13.450Z,52.77
2019-02-20T21:31:20.987Z,40.07
2019-02-20T21:34:01.440Z,33.97
2019-02-20T21:36:33.026Z,37.93
2019-02-20T21:39:23.889Z,22.93
2019-02-20T21:42:07.011Z,17.67
2019-02-20T21:44:47.291Z,20.97
2019-02-20T21:47:27.747Z,17.27
2019-02-20T21:50:22.633Z,24.77
2019-02-20T21:53:21.305Z,16.47
2019-02-20T21:56:01.915Z,22.23
2019-02-20T21:58:39.369Z,20.17
2019-02-20T22:01:35.158Z,20.70
2019-02-20T22:04:12.259Z,19.20
2019-02-20T22:07:01.837Z,16.10
2019-02-20T22:09:41.967Z,22.90
2019-02-20T22:12:19.235Z,15.90
2019-02-20T22:14:53.453Z,15.93
2019-02-20T22:17:39.620Z,20.50
2019-02-20T22:20:11.272Z,25.03
2019-02-20T22:22:57.807Z,17.17
2019-02-20T22:25:45.951Z,19.67
2019-02-20T22:28:23.365Z,15.33
2019-02-20T22:31:00.871Z,17.97
2019-02-20T22:33:50.112Z,18.03
2019-02-20T22:36:24.393Z,20.50
2019-02-20T22:39:15.392Z,21.37
2019-02-20T22:42:21.691Z,24.43
2019-02-20T22:45:11.889Z,21.40
2019-02-20T22:47:52.246Z,23.57
2019-02-20T22:50:35.624Z,20.27
2019-02-20T22:53:09.767Z,19.17
2019-02-20T22:55:58.993Z,21.37
2019-02-20T22:58:36.508Z,21.87
2019-02-20T23:01:17.214Z,16.57
2019-02-20T23:04:03.594Z,16.87
2019-02-20T23:06:53.118Z,16.33
2019-02-20T23:09:27.444Z,15.97
2019-02-20T23:12:18.380Z,25.10
2019-02-20T23:14:58.007Z,21.13
2019-02-20T23:17:27.558Z,18.27
2019-02-20T23:19:56.431Z,23.77
2019-02-20T23:22:25.172Z,21.67
2019-02-20T23:24:53.871Z,20.43
2019-02-20T23:27:22.546Z,26.20
2019-02-20T23:29:51.227Z,19.70
2019-02-20T23:32:19.852Z,27.17
2019-02-20T23:34:48.483Z,22.00
2019-02-20T23:37:17.159Z,24.20
2019-02-20T23:39:45.799Z,30.87
2019-02-20T23:42:14.437Z,24.67
2019-02-20T23:44:43.133Z,19.80
2019-02-20T23:47:11.746Z,19.73
2019-02-20T23:49:40.451Z,19.43
2019-02-20T23:52:09.196Z,27.27
2019-02-20T23:54:37.842Z,23.13
2019-02-20T23:57:06.468Z,19.57
2019-02-20T23:59:35.206Z,24.40
